BKPR/PRN METAR and TAF weather

Enter ICAO airport designator
Station Type Date Time Source
BKPR METAR 2022/01/18 07:30 UTC NOAA

BKPR 180730Z 35011KT 9999 FEW040 00/M08 Q1028 NOSIG


Station Type Date Time Source
BKPR Decoded METAR 2022/01/18 07:30 UTC NOAA

Station name not available
Jan 18, 2022 - 02:30 AM EST / 2022.01.18 0730 UTC
Wind: from the N (350 degrees) at 13 MPH (11 KT):0
Visibility: greater than 7 mile(s):0
Sky conditions: mostly clear
Temperature: 32 F (0 C)
Windchill: 23 F (-5 C):1
Dew Point: 17 F (-8 C)
Relative Humidity: 54%
Pressure (altimeter): 30.36 in. Hg (1028 hPa)
ob: BKPR 180730Z 35011KT 9999 FEW040 00/M08 Q1028 NOSIG
cycle: 7

Station Type Date Time Source
BKPR TAF 2022/01/18 06:30 UTC NOAA

TAF BKPR 180530Z 1806/1906 32010KT CAVOK
TEMPO 1806/1812 32015G25KT

Example: see airport list